Time;durP1;ratioP1;P1;durP2;ratioP2;P2;SDS_P1;SDS_P2;PMS_P1;PMS_P2;Temp;Humidity;BMP_temperature;BMP_pressure;BME280_temperature;BME280_humidity;BME280_pressure;Samples;Min_cycle;Max_cycle;Signal;HPM_P1;HPM_P2
2021/06/21 00:01:12;;;;;;;15.57;7.88;;;;;;;15.14;62.48;100855.97;4915323;29;20142;-41
2021/06/21 00:03:39;;;;;;;24.80;7.22;;;;;;;15.11;62.50;100857.53;4920317;29;20044;-38
2021/06/21 00:06:06;;;;;;;11.95;6.20;;;;;;;15.10;62.44;100861.50;4916394;29;20052;-38
2021/06/21 00:08:33;;;;;;;9.35;5.78;;;;;;;15.06;62.35;100855.03;4931367;29;20560;-38
2021/06/21 00:11:00;;;;;;;15.65;6.20;;;;;;;14.97;62.68;100857.28;4903563;29;20142;-39
2021/06/21 00:13:27;;;;;;;13.30;6.25;;;;;;;14.87;62.79;100857.91;4924931;29;20052;-38
2021/06/21 00:15:54;;;;;;;11.77;5.63;;;;;;;14.85;62.80;100868.59;4913387;29;20062;-39
2021/06/21 00:18:20;;;;;;;11.07;5.15;;;;;;;14.87;62.90;100866.28;4921946;29;20067;-39
2021/06/21 00:20:49;;;;;;;9.23;5.00;;;;;;;14.79;62.66;100866.50;4916177;29;20441;-39
2021/06/21 00:23:16;;;;;;;11.15;6.05;;;;;;;14.75;62.73;100876.75;4913741;29;20092;-39
2021/06/21 00:25:47;;;;;;;10.35;4.70;;;;;;;14.69;62.52;100873.50;4912398;29;20063;-39
2021/06/21 00:28:15;;;;;;;13.38;5.03;;;;;;;14.74;62.45;100875.97;4915429;29;20131;-39
2021/06/21 00:30:44;;;;;;;10.68;4.72;;;;;;;14.71;62.33;100876.72;4915066;29;20047;-39
2021/06/21 00:33:12;;;;;;;7.97;5.45;;;;;;;14.72;62.57;100883.88;4915759;29;20098;-39
2021/06/21 00:35:39;;;;;;;10.43;4.57;;;;;;;14.81;62.13;100875.28;4915009;29;20120;-39
2021/06/21 00:38:07;;;;;;;8.27;4.43;;;;;;;14.88;61.67;100887.38;4917040;29;20036;-39
2021/06/21 00:40:36;;;;;;;10.75;4.05;;;;;;;14.82;61.50;100880.50;4914803;29;20383;-39
2021/06/21 00:43:04;;;;;;;13.30;5.07;;;;;;;14.73;61.59;100885.50;4911606;29;20521;-40
2021/06/21 00:45:31;;;;;;;11.80;3.90;;;;;;;14.75;61.19;100888.72;4910548;29;20067;-40
2021/06/21 00:47:58;;;;;;;7.78;3.83;;;;;;;14.70;61.17;100888.22;4930497;29;20048;-40
2021/06/21 00:50:27;;;;;;;4.00;3.08;;;;;;;14.63;61.30;100897.25;4919875;29;20078;-40
2021/06/21 00:53:01;;;;;;;11.13;4.80;;;;;;;14.61;60.91;100888.47;4914747;29;20135;-39
2021/06/21 00:55:29;;;;;;;5.10;3.22;;;;;;;14.60;60.66;100878.50;4919571;29;20040;-40
2021/06/21 00:57:57;;;;;;;6.55;3.38;;;;;;;14.51;60.84;100883.47;4925663;29;20087;-40
2021/06/21 01:00:26;;;;;;;5.85;2.90;;;;;;;14.53;60.78;100881.94;4918932;29;20044;-40
2021/06/21 01:02:54;;;;;;;6.72;2.83;;;;;;;14.49;60.93;100885.84;4900855;29;20078;-41
2021/06/21 01:05:24;;;;;;;8.60;3.03;;;;;;;14.43;60.96;100887.28;4915827;29;20063;-40
2021/06/21 01:07:52;;;;;;;4.93;2.70;;;;;;;14.37;60.78;100883.22;4914036;29;20040;-40
2021/06/21 01:10:22;;;;;;;7.25;2.63;;;;;;;14.28;60.83;100890.94;4924883;29;20126;-40
2021/06/21 01:12:49;;;;;;;6.15;2.35;;;;;;;14.23;60.79;100891.25;4921879;29;20506;-45
2021/06/21 01:15:31;;;;;;;4.53;2.53;;;;;;;14.15;61.05;100897.84;4904424;29;20036;-40
2021/06/21 01:18:09;;;;;;;2.90;1.92;;;;;;;14.12;61.48;100893.00;4917801;29;20094;-40
2021/06/21 01:20:36;;;;;;;4.88;2.47;;;;;;;14.10;60.77;100895.34;4918332;29;20044;-40
2021/06/21 01:23:16;;;;;;;5.93;2.50;;;;;;;13.97;61.05;100898.28;4919069;29;20040;-40
2021/06/21 01:25:50;;;;;;;4.28;1.90;;;;;;;13.89;60.98;100902.06;4901602;29;20083;-39
2021/06/21 01:28:40;;;;;;;7.47;2.05;;;;;;;13.85;61.04;100894.78;4927259;29;20122;-39
2021/06/21 01:31:20;;;;;;;4.90;1.92;;;;;;;13.81;61.13;100894.72;4920699;29;20528;-40
2021/06/21 01:33:48;;;;;;;4.45;1.85;;;;;;;13.76;61.28;100902.53;4916588;29;20502;-40
2021/06/21 01:36:17;;;;;;;9.50;2.30;;;;;;;13.69;61.49;100903.16;4922894;29;20581;-40
2021/06/21 01:38:52;;;;;;;5.38;2.78;;;;;;;13.58;62.17;100896.56;4912240;29;20904;-40
2021/06/21 01:41:41;;;;;;;7.40;1.90;;;;;;;13.50;62.28;100905.91;4927227;29;20075;-40
2021/06/21 01:44:08;;;;;;;8.10;1.90;;;;;;;13.59;61.62;100897.34;4911927;29;20052;-39
2021/06/21 01:46:39;;;;;;;6.90;2.90;;;;;;;13.54;62.13;100895.69;4920595;29;20067;-40
2021/06/21 01:49:25;;;;;;;9.15;1.65;;;;;;;13.55;62.09;100897.31;4927930;29;20043;-39
2021/06/21 01:51:57;;;;;;;5.00;1.77;;;;;;;13.55;62.14;100896.47;4905294;29;20044;-40
2021/06/21 01:54:26;;;;;;;6.18;1.45;;;;;;;13.52;62.22;100892.44;4917654;29;20052;-40
2021/06/21 01:56:54;;;;;;;5.07;1.73;;;;;;;13.55;62.06;100886.16;4918485;29;20059;-39
2021/06/21 01:59:27;;;;;;;2.75;1.50;;;;;;;13.43;62.86;100883.47;4917236;29;20047;-39
2021/06/21 02:01:56;;;;;;;6.07;1.63;;;;;;;13.41;62.77;100888.59;4917722;29;20059;-40
2021/06/21 02:04:25;;;;;;;5.32;2.05;;;;;;;13.39;62.83;100883.41;4917759;29;20074;-40
2021/06/21 02:06:54;;;;;;;3.55;2.15;;;;;;;13.37;62.98;100890.47;4920861;29;20048;-40
2021/06/21 02:09:23;;;;;;;5.95;2.38;;;;;;;13.38;63.13;100889.31;4926486;29;20130;-40
2021/06/21 02:11:53;;;;;;;2.78;1.83;;;;;;;13.37;63.30;100896.03;4931802;29;20079;-40
2021/06/21 02:14:27;;;;;;;5.63;2.03;;;;;;;13.33;63.69;100893.19;4912412;29;20143;-40
2021/06/21 02:16:57;;;;;;;8.80;2.08;;;;;;;13.38;63.30;100892.09;4924240;29;20557;-40
2021/06/21 02:19:26;;;;;;;4.85;1.90;;;;;;;13.36;63.54;100895.25;4916742;29;20044;-40
2021/06/21 02:21:54;;;;;;;5.28;2.20;;;;;;;13.33;63.50;100900.72;4917266;29;20486;-40
2021/06/21 02:24:21;;;;;;;7.45;1.80;;;;;;;13.32;63.68;100899.09;4916820;29;20082;-40
2021/06/21 02:26:49;;;;;;;3.92;1.67;;;;;;;13.33;63.60;100897.94;4917577;29;20152;-41
2021/06/21 02:29:21;;;;;;;5.15;2.08;;;;;;;13.29;63.95;100894.28;4917250;29;20123;-39
2021/06/21 02:31:49;;;;;;;;;;;;;;;13.25;64.02;100898.94;4917007;29;20050;-40
2021/06/21 02:34:16;;;;;;;6.43;1.98;;;;;;;13.29;63.65;100899.84;4911290;29;20410;-41
2021/06/21 02:36:43;;;;;;;6.65;1.60;;;;;;;13.27;64.01;100902.16;4921741;29;20044;-41
2021/06/21 02:39:10;;;;;;;6.45;2.40;;;;;;;13.24;64.25;100892.56;4909976;29;20056;-40
2021/06/21 02:41:38;;;;;;;10.75;1.88;;;;;;;13.31;64.15;100903.06;4924027;29;20773;-39
2021/06/21 02:44:05;;;;;;;7.78;2.13;;;;;;;13.35;63.99;100903.94;4920806;29;20052;-40
2021/06/21 02:46:33;;;;;;;7.22;2.00;;;;;;;13.36;64.20;100906.38;4925889;29;20083;-40
2021/06/21 02:49:00;;;;;;;7.78;2.53;;;;;;;13.37;64.33;100912.72;4926332;29;20122;-39
2021/06/21 02:51:43;;;;;;;6.53;1.90;;;;;;;13.34;64.72;100916.25;4923871;29;20127;-40
2021/06/21 02:54:38;;;;;;;11.20;1.92;;;;;;;13.37;64.79;100921.06;4915630;29;20146;-40
2021/06/21 02:57:27;;;;;;;7.53;1.83;;;;;;;13.42;64.69;100923.59;4890956;29;20134;-42
2021/06/21 02:59:55;;;;;;;6.72;1.60;;;;;;;13.49;64.37;100923.75;4915857;29;20091;-40
2021/06/21 03:02:22;;;;;;;6.53;2.13;;;;;;;13.52;64.25;100928.63;4929033;29;20452;-39
2021/06/21 03:04:51;;;;;;;5.63;2.00;;;;;;;13.50;64.22;100919.84;4916483;29;20075;-40
2021/06/21 03:07:20;;;;;;;10.45;2.35;;;;;;;13.52;64.58;100927.81;4915751;29;20044;-40
2021/06/21 03:09:48;;;;;;;7.65;3.78;;;;;;;13.56;64.45;100934.25;4916422;29;20139;-40
2021/06/21 03:12:22;;;;;;;6.63;2.60;;;;;;;13.50;64.83;100930.16;4920944;29;20079;-40
2021/06/21 03:14:50;;;;;;;6.70;2.42;;;;;;;13.53;64.78;100935.78;4923377;29;20043;-40
2021/06/21 03:17:18;;;;;;;7.50;2.00;;;;;;;13.56;64.74;100937.03;4926773;29;20067;-40
2021/06/21 03:19:46;;;;;;;9.82;2.30;;;;;;;13.58;64.56;100941.06;4917817;29;20127;-41
2021/06/21 03:22:16;;;;;;;7.13;1.73;;;;;;;13.57;64.58;100947.81;4922309;29;20128;-41
2021/06/21 03:24:43;;;;;;;8.73;1.98;;;;;;;13.63;64.49;100948.34;4903274;29;20126;-40
2021/06/21 03:27:10;;;;;;;7.35;2.28;;;;;;;13.66;64.29;100953.19;4921988;29;20127;-39
2021/06/21 03:29:37;;;;;;;2.40;1.33;;;;;;;13.61;64.50;100951.47;4917169;29;20080;-40
2021/06/21 03:32:27;;;;;;;6.80;1.85;;;;;;;13.57;65.15;100967.28;4910302;29;20059;-40
2021/06/21 03:34:56;;;;;;;6.82;1.52;;;;;;;13.60;64.70;100962.97;4928743;29;20059;-40
2021/06/21 03:37:23;;;;;;;4.38;1.00;;;;;;;13.63;64.42;100965.03;4920246;29;20229;-40
2021/06/21 03:39:50;;;;;;;6.47;1.67;;;;;;;13.59;64.56;100962.16;4908908;29;20087;-40
2021/06/21 03:42:17;;;;;;;8.48;1.40;;;;;;;13.63;64.35;100965.03;4915433;29;20102;-40
2021/06/21 03:44:44;;;;;;;9.32;1.77;;;;;;;13.58;64.46;100971.66;4921619;29;20044;-43
2021/06/21 03:47:15;;;;;;;3.08;1.13;;;;;;;13.57;64.36;100972.84;4916265;29;20446;-40
2021/06/21 03:49:47;;;;;;;3.05;1.13;;;;;;;13.55;64.43;100980.75;4915306;29;20498;-40
2021/06/21 03:52:15;;;;;;;2.08;1.17;;;;;;;13.54;64.09;100973.56;4915775;29;20382;-40
2021/06/21 03:54:43;;;;;;;3.60;1.15;;;;;;;13.56;64.21;100976.78;4916187;29;20048;-40
2021/06/21 03:57:10;;;;;;;5.65;1.17;;;;;;;13.55;64.30;100980.75;4902876;29;20565;-40
2021/06/21 03:59:37;;;;;;;6.90;1.05;;;;;;;13.60;64.11;100979.66;4915178;29;20075;-39
2021/06/21 04:02:04;;;;;;;4.75;1.02;;;;;;;13.58;63.85;100991.13;4921010;29;20127;-39
2021/06/21 04:04:31;;;;;;;3.08;0.77;;;;;;;13.59;64.09;100975.25;4926357;29;20054;-39
2021/06/21 04:06:58;;;;;;;4.38;0.90;;;;;;;13.54;63.95;100979.13;4915549;29;20147;-39
2021/06/21 04:09:24;;;;;;;3.65;0.93;;;;;;;13.57;63.85;100983.97;4918781;29;20044;-38
2021/06/21 04:11:51;;;;;;;5.60;1.00;;;;;;;13.54;63.94;100979.13;4923490;29;20071;-40
2021/06/21 04:14:18;;;;;;;4.68;1.13;;;;;;;13.52;63.53;100981.47;4914976;29;20512;-39
2021/06/21 04:16:45;;;;;;;4.95;0.90;;;;;;;13.48;63.77;100977.78;4915450;29;20509;-39
2021/06/21 04:19:12;;;;;;;2.70;0.70;;;;;;;13.49;63.79;100976.63;4914982;29;20072;-39
2021/06/21 04:21:38;;;;;;;5.78;0.90;;;;;;;13.42;63.77;100982.00;4914827;29;20079;-40
2021/06/21 04:24:06;;;;;;;3.22;0.85;;;;;;;13.33;63.97;100984.16;4915480;29;20092;-41
2021/06/21 04:26:34;;;;;;;6.75;1.00;;;;;;;13.28;63.94;100987.19;4919963;29;20040;-39
2021/06/21 04:29:02;;;;;;;3.63;1.05;;;;;;;13.30;63.80;101004.31;4916515;29;20047;-48
2021/06/21 04:31:46;;;;;;;5.63;0.65;;;;;;;13.29;63.83;100992.38;4928435;29;20066;-39
2021/06/21 04:34:14;;;;;;;6.85;1.13;;;;;;;13.29;63.84;100994.38;4921775;29;20075;-39
2021/06/21 04:36:40;;;;;;;4.68;0.82;;;;;;;13.35;63.81;101001.28;4915136;29;20497;-39
2021/06/21 04:39:07;;;;;;;7.00;1.65;;;;;;;13.30;64.21;101004.31;4915348;29;20458;-39
2021/06/21 04:41:34;;;;;;;1.95;0.82;;;;;;;13.29;63.99;101005.50;4918689;29;20151;-40
2021/06/21 04:44:01;;;;;;;4.65;1.50;;;;;;;13.27;64.09;101000.28;4932500;29;20051;-40
2021/06/21 04:46:29;;;;;;;3.05;1.10;;;;;;;13.20;64.16;101002.88;4918913;29;20079;-39
2021/06/21 04:48:56;;;;;;;6.55;1.25;;;;;;;13.19;64.26;101008.78;4931121;29;20454;-39
2021/06/21 04:51:23;;;;;;;5.38;0.93;;;;;;;13.19;64.25;101011.56;4919057;29;20052;-39
2021/06/21 04:53:50;;;;;;;5.18;1.00;;;;;;;13.16;64.26;101023.38;4918761;29;20048;-39
2021/06/21 04:56:17;;;;;;;5.47;1.00;;;;;;;13.19;64.18;101017.13;4926627;29;20048;-39
2021/06/21 04:58:44;;;;;;;5.32;1.17;;;;;;;13.16;63.95;101026.16;4906958;29;20495;-39
2021/06/21 05:01:13;;;;;;;4.05;0.90;;;;;;;13.16;64.13;101029.75;4933420;29;20114;-38
2021/06/21 05:03:40;;;;;;;6.35;1.17;;;;;;;13.16;63.98;101031.72;4923365;29;20107;-39
2021/06/21 05:06:07;;;;;;;3.22;1.45;;;;;;;13.09;64.05;101034.31;4928486;29;20506;-39
2021/06/21 05:08:34;;;;;;;6.40;1.67;;;;;;;13.10;64.08;101030.41;4918809;29;20071;-45
2021/06/21 05:11:01;;;;;;;3.70;1.50;;;;;;;13.12;63.93;101039.19;4928220;29;20044;-39
2021/06/21 05:13:28;;;;;;;7.70;1.10;;;;;;;13.07;64.06;101045.81;4923554;29;20055;-39
2021/06/21 05:15:54;;;;;;;5.82;1.40;;;;;;;13.08;63.99;101039.06;4926626;29;20131;-39
2021/06/21 05:18:21;;;;;;;6.25;1.20;;;;;;;13.04;63.85;101045.66;4918291;29;20048;-39
2021/06/21 05:20:48;;;;;;;3.22;1.15;;;;;;;12.99;64.02;101048.72;4929153;29;20107;-39
2021/06/21 05:23:15;;;;;;;5.45;1.10;;;;;;;12.96;64.00;101047.44;4924021;29;20052;-39
2021/06/21 05:25:42;;;;;;;5.78;1.10;;;;;;;12.93;64.00;101059.25;4913697;29;20126;-39
2021/06/21 05:28:09;;;;;;;14.35;1.85;;;;;;;12.85;64.05;101051.88;4926902;29;20075;-39
2021/06/21 05:30:36;;;;;;;9.18;1.92;;;;;;;12.77;64.19;101056.44;4924006;29;20142;-39
2021/06/21 05:33:03;;;;;;;9.40;1.45;;;;;;;12.76;64.11;101057.59;4918056;29;20068;-39
2021/06/21 05:35:29;;;;;;;8.40;1.30;;;;;;;12.81;64.03;101064.88;4918180;29;20050;-39
2021/06/21 05:37:57;;;;;;;5.57;1.23;;;;;;;12.84;63.75;101064.97;4918650;29;20083;-39
2021/06/21 05:40:23;;;;;;;5.85;1.60;;;;;;;12.88;63.93;101067.03;4917677;29;20044;-39
2021/06/21 05:42:54;;;;;;;7.53;1.15;;;;;;;12.79;63.87;101068.00;4917446;29;20064;-38
2021/06/21 05:45:21;;;;;;;5.28;1.35;;;;;;;12.80;63.94;101075.19;4921206;29;20067;-39
2021/06/21 05:47:49;;;;;;;3.88;1.10;;;;;;;12.83;63.56;101070.88;4931746;29;20044;-39
2021/06/21 05:50:19;;;;;;;5.88;1.70;;;;;;;12.81;63.56;101071.22;4920366;29;20134;-39
2021/06/21 05:52:51;;;;;;;6.10;1.85;;;;;;;12.86;63.84;101078.53;4916671;29;20776;-39
2021/06/21 05:55:19;;;;;;;5.30;1.40;;;;;;;12.85;63.65;101085.22;4916220;29;20039;-39
2021/06/21 05:57:47;;;;;;;4.43;1.42;;;;;;;12.80;63.52;101077.97;4917729;29;20067;-39
2021/06/21 06:00:14;;;;;;;7.28;1.63;;;;;;;12.76;63.73;101079.81;4916828;29;20080;-40
2021/06/21 06:02:43;;;;;;;4.03;1.20;;;;;;;12.80;63.56;101082.69;4913904;29;20040;-39
2021/06/21 06:05:10;;;;;;;3.67;1.45;;;;;;;12.83;63.43;101080.03;4917872;29;20048;-39
2021/06/21 06:07:37;;;;;;;3.65;1.30;;;;;;;12.83;63.54;101085.59;4917350;29;20444;-39
2021/06/21 06:10:06;;;;;;;6.65;1.45;;;;;;;12.81;63.49;101085.13;4906589;29;20040;-38
2021/06/21 06:12:33;;;;;;;5.28;1.60;;;;;;;12.81;63.46;101090.66;4920656;29;20044;-38
2021/06/21 06:15:02;;;;;;;8.95;2.03;;;;;;;12.86;63.49;101092.41;4927117;29;20478;-39
2021/06/21 06:17:29;;;;;;;7.68;1.88;;;;;;;12.89;63.33;101099.25;4900338;29;20072;-39
2021/06/21 06:19:56;;;;;;;2.40;1.17;;;;;;;12.90;63.43;101109.16;4910310;29;20148;-39
2021/06/21 06:22:23;;;;;;;4.35;1.50;;;;;;;12.90;63.42;101110.00;4918863;29;20044;-40
2021/06/21 06:24:50;;;;;;;8.93;1.95;;;;;;;12.94;63.35;101104.53;4918467;29;20092;-39
2021/06/21 06:27:16;;;;;;;7.90;2.88;;;;;;;12.95;63.15;101103.38;4917368;29;20052;-39
2021/06/21 06:29:43;;;;;;;6.47;1.92;;;;;;;13.00;63.23;101106.72;4919546;29;20131;-40
2021/06/21 06:32:10;;;;;;;9.23;2.00;;;;;;;13.06;63.19;101112.81;4921017;29;20127;-39
2021/06/21 06:34:37;;;;;;;5.88;1.50;;;;;;;13.15;63.14;101114.34;4929846;29;20078;-39
2021/06/21 06:37:06;;;;;;;6.85;1.98;;;;;;;13.23;62.97;101107.00;4920060;29;20044;-39
2021/06/21 06:39:33;;;;;;;7.57;2.08;;;;;;;13.27;63.11;101117.06;4906202;29;20080;-40
2021/06/21 06:42:00;;;;;;;8.25;2.22;;;;;;;13.34;62.59;101119.25;4916429;29;20072;-39
2021/06/21 06:44:27;;;;;;;9.63;2.78;;;;;;;13.33;62.34;101117.63;4920870;29;20448;-39
2021/06/21 06:46:54;;;;;;;3.80;2.65;;;;;;;13.31;62.49;101126.34;4917098;29;20129;-39
2021/06/21 06:49:21;;;;;;;10.27;2.20;;;;;;;13.27;62.62;101130.16;4911933;29;20052;-39
2021/06/21 06:51:51;;;;;;;7.22;2.10;;;;;;;13.28;62.33;101126.22;4916967;29;20163;-39
2021/06/21 06:57:02;;;;;;;4.78;1.85;;;;;;;13.27;62.13;101130.16;4916442;29;20067;-39
2021/06/21 06:59:32;;;;;;;5.50;2.67;;;;;;;13.21;62.37;101132.38;4916958;29;20574;-40
2021/06/21 07:02:02;;;;;;;7.55;2.28;;;;;;;13.18;62.59;101129.50;4916126;29;20047;-39
2021/06/21 07:04:36;;;;;;;6.30;2.20;;;;;;;13.10;62.47;101130.47;4915988;29;20128;-39
2021/06/21 07:07:04;;;;;;;7.55;2.15;;;;;;;13.08;62.64;101133.59;4914953;29;20079;-39
2021/06/21 07:09:33;;;;;;;7.38;2.15;;;;;;;13.12;62.35;101134.50;4910616;29;20047;-39
2021/06/21 07:12:01;;;;;;;11.10;2.88;;;;;;;13.11;62.41;101132.06;4907338;29;20475;-41
2021/06/21 07:14:28;;;;;;;6.78;2.38;;;;;;;13.06;62.40;101135.06;4910859;29;20163;-40
2021/06/21 07:16:56;;;;;;;9.88;2.13;;;;;;;13.03;62.49;101138.53;4895635;29;20055;-40
2021/06/21 07:19:22;;;;;;;21.60;4.28;;;;;;;13.05;62.43;101150.94;4913373;29;20040;-40
2021/06/21 07:21:50;;;;;;;7.32;2.40;;;;;;;12.98;62.66;101155.47;4912733;29;20056;-45
2021/06/21 07:24:17;;;;;;;4.68;2.50;;;;;;;13.03;62.55;101158.00;4897752;29;20123;-40
2021/06/21 07:26:49;;;;;;;5.18;2.30;;;;;;;13.04;62.50;101159.63;4911631;29;20074;-40
2021/06/21 07:29:16;;;;;;;12.85;4.15;;;;;;;13.08;62.52;101163.38;4912812;29;20062;-39
2021/06/21 07:31:43;;;;;;;5.00;2.53;;;;;;;13.14;62.58;101159.16;4915256;29;20071;-39
2021/06/21 07:34:11;;;;;;;7.63;2.65;;;;;;;13.14;62.47;101159.97;4913249;29;20092;-39
2021/06/21 07:36:38;;;;;;;7.13;2.72;;;;;;;13.23;62.32;101168.19;4914030;29;20482;-41
2021/06/21 07:39:06;;;;;;;9.38;2.72;;;;;;;13.31;62.12;101170.81;4913264;29;20080;-40
2021/06/21 07:41:33;;;;;;;5.63;2.55;;;;;;;13.30;61.93;101169.19;4916080;29;20036;-39
2021/06/21 07:44:00;;;;;;;8.38;2.15;;;;;;;13.30;61.86;101173.94;4913303;29;20052;-40
2021/06/21 07:46:29;;;;;;;7.07;2.55;;;;;;;13.32;61.84;101169.66;4911543;29;20142;-40
2021/06/21 07:48:56;;;;;;;6.00;2.70;;;;;;;13.30;61.79;101169.19;4884122;29;20044;-40
2021/06/21 07:51:24;;;;;;;3.83;2.20;;;;;;;13.43;61.57;101175.50;4912468;29;20056;-45
2021/06/21 07:53:52;;;;;;;6.82;3.08;;;;;;;13.54;61.33;101173.84;4905529;29;20051;-40
2021/06/21 07:56:21;;;;;;;7.07;2.67;;;;;;;13.55;61.10;101183.00;4920765;29;20083;-41
2021/06/21 07:58:49;;;;;;;9.88;3.55;;;;;;;13.58;61.14;101179.53;4907558;29;20125;-40
2021/06/21 08:01:16;;;;;;;11.75;2.80;;;;;;;13.59;60.91;101193.06;4912283;29;20151;-40
2021/06/21 08:03:44;;;;;;;10.13;3.35;;;;;;;13.62;60.62;101184.00;4909595;29;20040;-40
2021/06/21 08:06:13;;;;;;;10.40;3.53;;;;;;;13.67;60.67;101186.53;4906197;29;20040;-39
2021/06/21 08:08:41;;;;;;;7.80;3.17;;;;;;;13.78;60.45;101184.88;4914268;29;20078;-41
2021/06/21 08:11:09;;;;;;;7.63;3.50;;;;;;;13.82;60.23;101187.75;4916603;29;20135;-43
2021/06/21 08:13:36;;;;;;;7.15;2.90;;;;;;;13.96;59.83;101194.50;4920033;29;20083;-40
2021/06/21 08:16:06;;;;;;;11.05;3.85;;;;;;;14.04;59.68;101203.84;4899173;29;20096;-41
2021/06/21 08:18:34;;;;;;;7.68;3.65;;;;;;;14.14;59.72;101203.31;4914391;29;20531;-41
2021/06/21 08:21:01;;;;;;;5.82;2.55;;;;;;;14.24;59.17;101210.34;4908965;29;20051;-40
2021/06/21 08:23:31;;;;;;;6.90;2.75;;;;;;;14.33;58.87;101211.00;4905863;29;20071;-40
2021/06/21 08:25:58;;;;;;;9.70;3.33;;;;;;;14.36;58.65;101204.69;4910127;29;20087;-40
2021/06/21 08:28:25;;;;;;;5.53;3.60;;;;;;;14.36;58.50;101215.84;4912231;29;20059;-40
2021/06/21 08:30:52;;;;;;;6.40;2.85;;;;;;;14.44;58.20;101212.06;4910361;29;20103;-43
2021/06/21 08:33:19;;;;;;;5.25;2.85;;;;;;;14.50;58.11;101213.44;4921830;29;20076;-40
2021/06/21 08:35:51;;;;;;;11.90;3.13;;;;;;;14.57;57.93;101210.81;4918726;29;20122;-40
2021/06/21 08:38:17;;;;;;;8.48;3.55;;;;;;;14.66;57.74;101205.06;4892505;29;20499;-45
2021/06/21 08:40:44;;;;;;;9.40;3.08;;;;;;;14.72;57.58;101207.19;4911220;29;20511;-40
2021/06/21 08:43:14;;;;;;;5.53;3.13;;;;;;;14.76;57.01;101216.44;4924219;29;20140;-40
2021/06/21 08:45:42;;;;;;;12.40;4.15;;;;;;;14.78;56.97;101222.47;4916073;29;20043;-41
2021/06/21 08:48:10;;;;;;;8.65;4.40;;;;;;;14.88;57.02;101209.97;4917390;29;20055;-40
2021/06/21 08:50:39;;;;;;;5.40;3.63;;;;;;;14.94;56.56;101219.66;4910017;29;20060;-40
2021/06/21 08:53:06;;;;;;;5.30;3.05;;;;;;;15.03;56.27;101225.84;4915814;29;20054;-43
2021/06/21 08:55:33;;;;;;;6.68;3.58;;;;;;;15.10;55.81;101214.84;4919400;29;20099;-40
2021/06/21 08:58:02;;;;;;;6.32;2.95;;;;;;;15.27;55.66;101220.81;4910764;29;20104;-41
2021/06/21 09:00:31;;;;;;;10.57;4.22;;;;;;;15.37;55.22;101215.84;4904891;29;20041;-45
2021/06/21 09:03:02;;;;;;;6.80;3.63;;;;;;;15.44;54.34;101221.56;4913620;29;20155;-40
2021/06/21 09:05:33;;;;;;;8.20;3.47;;;;;;;15.50;54.07;101218.16;4915895;29;20091;-40
2021/06/21 09:08:08;;;;;;;7.15;2.97;;;;;;;15.54;53.33;101226.59;4913009;29;20048;-40
2021/06/21 09:10:38;;;;;;;6.28;3.00;;;;;;;15.55;53.26;101222.63;4900869;29;20383;-40
2021/06/21 09:13:18;;;;;;;7.95;2.80;;;;;;;15.55;52.76;101217.03;4912203;29;20060;-40
2021/06/21 09:15:50;;;;;;;8.55;3.13;;;;;;;15.62;52.43;101218.00;4899377;29;20056;-40
2021/06/21 09:18:28;;;;;;;;;;;;;;;15.61;50.84;101229.53;4912303;29;20047;-41
2021/06/21 09:21:18;;;;;;;8.98;3.50;;;;;;;15.68;52.26;101235.25;4913486;29;19978;-40
2021/06/21 09:24:12;;;;;;;9.57;4.60;;;;;;;15.88;52.24;101230.47;4897387;29;20493;-40
2021/06/21 09:26:40;;;;;;;8.45;3.20;;;;;;;16.51;52.52;101230.84;4911241;29;20058;-41
2021/06/21 09:29:07;;;;;;;8.20;2.78;;;;;;;17.15;51.55;101227.91;4917202;29;20104;-40
2021/06/21 09:31:55;;;;;;;7.70;3.33;;;;;;;18.14;48.30;101217.91;4918721;29;20040;-40
2021/06/21 09:34:24;;;;;;;7.63;2.90;;;;;;;18.60;48.67;101224.81;4910339;29;20100;-44
2021/06/21 09:36:53;;;;;;;10.55;2.65;;;;;;;18.82;48.18;101220.94;4923370;29;20158;-41
2021/06/21 09:39:28;;;;;;;6.20;2.90;;;;;;;19.08;46.86;101227.56;4914886;29;20474;-40
2021/06/21 09:42:06;;;;;;;6.65;3.03;;;;;;;19.50;44.75;101225.00;4909578;29;20659;-41
2021/06/21 09:44:48;;;;;;;5.47;2.78;;;;;;;20.17;44.61;101221.63;4898675;29;20478;-42
2021/06/21 09:47:21;;;;;;;;;;;;;;;20.90;44.48;101225.69;4924786;29;20071;-43
2021/06/21 09:50:18;;;;;;;4.43;2.58;;;;;;;21.30;42.27;101230.06;4915538;29;19990;-41
2021/06/21 09:52:59;;;;;;;6.38;2.75;;;;;;;21.55;40.48;101228.00;4924105;29;20060;-41
2021/06/21 09:55:28;;;;;;;8.73;2.65;;;;;;;21.69;40.69;101236.38;4914412;29;20051;-41
2021/06/21 09:58:07;;;;;;;4.55;2.65;;;;;;;21.96;37.10;101234.66;4915670;29;20051;-41
2021/06/21 10:00:40;;;;;;;5.03;2.47;;;;;;;22.07;38.23;101226.16;4899503;29;20132;-42
2021/06/21 10:03:14;;;;;;;2.63;2.42;;;;;;;21.90;37.47;101232.69;4928531;29;20123;-41
2021/06/21 10:05:46;;;;;;;7.18;3.72;;;;;;;21.89;37.93;101237.53;4914778;29;20044;-46
2021/06/21 10:08:14;;;;;;;18.70;3.13;;;;;;;21.84;37.67;101233.06;4911395;29;20076;-41
2021/06/21 10:10:43;;;;;;;6.18;2.63;;;;;;;21.86;36.88;101227.06;4915950;29;20056;-41
2021/06/21 10:13:11;;;;;;;4.35;1.98;;;;;;;21.89;36.42;101239.53;4913886;29;20043;-42
2021/06/21 10:15:39;;;;;;;5.20;2.25;;;;;;;21.87;36.46;101228.66;4896413;29;20051;-41
2021/06/21 10:18:07;;;;;;;4.85;2.53;;;;;;;21.66;36.20;101223.09;4921377;29;20126;-40
2021/06/21 10:20:35;;;;;;;5.15;2.35;;;;;;;21.81;35.87;101225.47;4915209;29;20450;-44
2021/06/21 10:23:03;;;;;;;6.00;2.55;;;;;;;21.81;36.13;101228.28;4912777;29;20044;-41
2021/06/21 10:25:31;;;;;;;4.22;2.53;;;;;;;21.83;35.91;101233.50;4913672;29;20453;-41
2021/06/21 10:27:59;;;;;;;6.90;2.65;;;;;;;21.85;35.77;101231.06;4915992;29;20044;-40
2021/06/21 10:30:28;;;;;;;4.20;2.92;;;;;;;21.73;35.80;101237.19;4918577;29;20040;-42
2021/06/21 10:32:55;;;;;;;6.53;2.78;;;;;;;21.70;35.57;101229.53;4893224;29;20878;-40
2021/06/21 10:35:24;;;;;;;4.82;2.70;;;;;;;21.54;35.68;101234.81;4909932;29;20075;-42
2021/06/21 10:38:00;;;;;;;4.95;3.05;;;;;;;21.42;35.02;101240.91;4913927;29;20092;-41
2021/06/21 10:40:27;;;;;;;4.82;2.95;;;;;;;21.50;35.84;101234.06;4915748;29;20826;-41
2021/06/21 10:42:54;;;;;;;7.32;3.22;;;;;;;21.48;35.58;101228.81;4914705;29;20111;-41
2021/06/21 10:45:24;;;;;;;4.75;2.90;;;;;;;21.24;35.40;101224.06;4913500;29;20123;-41
2021/06/21 10:48:07;;;;;;;5.13;3.33;;;;;;;21.16;34.85;101236.53;4920717;29;20044;-43
2021/06/21 10:50:51;;;;;;;6.63;2.72;;;;;;;20.97;35.59;101234.94;4914603;29;20604;-41
2021/06/21 10:53:18;;;;;;;4.18;2.78;;;;;;;20.87;36.35;101230.13;4903666;29;20435;-44
2021/06/21 10:55:51;;;;;;;8.13;3.03;;;;;;;20.81;35.65;101234.53;4896798;29;20084;-41
2021/06/21 10:58:21;;;;;;;9.18;3.80;;;;;;;20.74;35.87;101234.56;4911591;29;20044;-43
2021/06/21 11:00:51;;;;;;;5.53;3.38;;;;;;;20.61;36.22;101230.53;4914718;29;20549;-40
2021/06/21 11:03:31;;;;;;;11.80;4.05;;;;;;;20.54;36.36;101224.91;4914017;29;20052;-41
2021/06/21 11:06:08;;;;;;;6.32;2.92;;;;;;;20.57;36.33;101224.13;4912380;29;20131;-41
2021/06/21 11:08:45;;;;;;;3.97;3.15;;;;;;;20.61;36.90;101230.53;4912590;29;20513;-41
2021/06/21 11:11:34;;;;;;;5.55;3.55;;;;;;;20.59;37.09;101222.50;4917499;29;20123;-40
2021/06/21 11:14:22;;;;;;;7.03;3.15;;;;;;;20.43;36.92;101229.72;4911011;29;20051;-40
2021/06/21 11:17:10;;;;;;;8.05;3.53;;;;;;;20.31;37.74;101232.91;4913645;29;20784;-40
2021/06/21 11:19:41;;;;;;;7.50;3.13;;;;;;;20.26;38.07;101239.75;4921663;29;20111;-45
2021/06/21 11:22:08;;;;;;;7.15;3.38;;;;;;;20.16;38.20;101245.31;4913348;29;20091;-40
2021/06/21 11:24:35;;;;;;;12.45;4.28;;;;;;;20.10;38.05;101247.69;4906889;29;20114;-51
2021/06/21 11:27:06;;;;;;;7.50;3.60;;;;;;;20.10;37.80;101255.31;4911430;29;20046;-41
2021/06/21 11:29:35;;;;;;;8.35;4.47;;;;;;;20.01;38.15;101259.31;4912526;29;20047;-41
2021/06/21 11:32:04;;;;;;;10.48;3.92;;;;;;;19.93;38.05;101252.09;4913868;29;20123;-40
2021/06/21 11:34:57;;;;;;;7.40;3.67;;;;;;;19.86;37.19;101257.66;4911377;29;20050;-41
2021/06/21 11:37:50;;;;;;;8.27;3.72;;;;;;;19.89;36.79;101261.69;4909054;29;20051;-40
2021/06/21 11:40:23;;;;;;;10.00;5.78;;;;;;;19.91;38.25;101259.28;4901814;29;20041;-42